MOL Explorer — 3EKT8 — position and weather

sailwx.info

Track history (hours):
 
Tides and Currents Weather Stations Pressure Air Temp Water Temp Dewpoint Dewpoint Depression Visibility Wind Speed Wind Dir Waves Ship Positions

MOL Explorer

Last reported at 2014-Sep-13 17:33 UTC. Time now 2014-Sep-16 23:30 UTC.
Position N 35°32' E 141°22'.

Length 293 m; draft 11.7 m.

Type: Ship (hazmat cat A). MMSI: 372827000.

Date/timePositionNaut miles runAvg speedWind from/ knotsBaromVisibWave heightAir tempDewpointWater temp
2014-Sep-13 17:33N 35°32' E 141°22'2020.2
2014-Sep-13 16:33N 35°22' E 141°01'2019.7
2014-Sep-13 15:33N 35°10' E 140°42'1919.5
2014-Sep-13 14:33N 34°59' E 140°22'2019.6
2014-Sep-13 13:33N 34°49' E 140°01'1616.0
2014-Sep-13 12:33N 34°52' E 139°42'1615.9
2014-Sep-13 11:33N 35°08' E 139°45'1111.4
2014-Sep-13 10:33N 35°19' E 139°43'1212.3
2014-Sep-13 09:34N 35°30' E 139°51'8 8.1
2014-Sep-13 08:33N 35°36' E 139°46'0 0.0
2014-Sep-13 07:32N 35°36' E 139°46'0 0.0
2014-Sep-13 06:32N 35°36' E 139°46'0 0.0
2014-Sep-13 05:32N 35°36' E 139°46'0 0.0
2014-Sep-13 04:29N 35°36' E 139°46'0 0.0
2014-Sep-13 03:32N 35°36' E 139°46'0 0.0
2014-Sep-13 02:32N 35°36' E 139°46'0 0.0
2014-Sep-13 01:26N 35°36' E 139°46'0 0.0
2014-Sep-13 00:32N 35°36' E 139°46'0 0.0
2014-Sep-12 23:32N 35°36' E 139°46'0 0.4
2014-Sep-12 22:33N 35°36' E 139°46'9 8.5
2014-Sep-12 21:33N 35°29' E 139°52'1312.5
2014-Sep-12 20:34N 35°18' E 139°45'1111.2
2014-Sep-12 19:33N 35°06' E 139°45'1111.0
2014-Sep-12 18:33N 34°56' E 139°39'1612.4
2014-Sep-12 17:18N 34°41' E 139°34'50 9.8
2014-Sep-12 12:15N 34°55' E 138°36'8 6.9
2014-Sep-12 11:04N 35°02' E 138°31'0 0.0
2014-Sep-12 10:33N 35°02' E 138°31'0 0.0
2014-Sep-12 08:21N 35°02' E 138°31'0 0.0
2014-Sep-12 06:21N 35°02' E 138°31'0 0.0
2014-Sep-12 04:33N 35°02' E 138°31'0 0.0
2014-Sep-12 02:33N 35°02' E 138°31'0 0.0
2014-Sep-12 00:18N 35°02' E 138°31'30 9.6
2014-Sep-11 21:13N 34°34' E 138°21'174 3.9
2014-Sep-10 01:08N 33°56' E 134°56'712.4
2014-Sep-10 00:33N 34°03' E 134°56'1211.9
2014-Sep-09 23:33N 34°15' E 134°58'1313.1
2014-Sep-09 22:33N 34°27' E 135°05'1515.0
2014-Sep-09 21:33N 34°39' E 135°16'1 1.3
2014-Sep-09 20:30N 34°39' E 135°15'0 0.0
2014-Sep-09 19:33N 34°39' E 135°15'0 0.0
2014-Sep-09 18:30N 34°39' E 135°15'0 0.0
2014-Sep-09 17:30N 34°39' E 135°15'0 0.0
2014-Sep-09 16:30N 34°39' E 135°15'0 0.0
2014-Sep-09 15:30N 34°39' E 135°15'0 0.0
2014-Sep-09 14:27N 34°39' E 135°15'0 0.0
2014-Sep-09 13:30N 34°39' E 135°15'0 0.0
2014-Sep-09 12:30N 34°39' E 135°15'0 0.0
2014-Sep-09 11:30N 34°39' E 135°15'0 0.0
2014-Sep-09 10:30N 34°39' E 135°15'0 0.0
2014-Sep-09 09:30N 34°39' E 135°15'0 0.0
2014-Sep-09 08:18N 34°39' E 135°15'0 0.0
2014-Sep-09 07:30N 34°39' E 135°15'0 0.0
2014-Sep-09 06:33N 34°39' E 135°15'7 7.4
2014-Sep-09 05:33N 34°32' E 135°13'1716.9
2014-Sep-09 04:33N 34°19' E 135°00'1414.1
2014-Sep-09 03:33N 34°05' E 134°59'21515.2
2014-Sep-08 13:24N 34°47' E 139°15'1719.8
2014-Sep-08 12:33N 34°58' E 139°30'1818.4
2014-Sep-08 11:33N 35°11' E 139°46'1212.1
2014-Sep-08 10:33N 35°23' E 139°42'1212.1
2014-Sep-08 09:33N 35°34' E 139°49'3 3.3
2014-Sep-08 08:33N 35°36' E 139°46'0 0.0
2014-Sep-08 07:33N 35°36' E 139°46'0 0.0
2014-Sep-08 06:33N 35°36' E 139°46'0 0.0
2014-Sep-08 05:33N 35°36' E 139°46'0 0.0
2014-Sep-08 04:30N 35°36' E 139°46'0 0.0
2014-Sep-08 03:33N 35°36' E 139°46'0 0.0
2014-Sep-08 02:33N 35°36' E 139°46'0 0.0
2014-Sep-08 01:33N 35°36' E 139°46'0 0.0
2014-Sep-08 00:30N 35°36' E 139°46'0 0.0
2014-Sep-07 23:33N 35°36' E 139°46'0 0.1
2014-Sep-07 22:34N 35°36' E 139°46'8 8.4
2014-Sep-07 21:33N 35°30' E 139°52'1111.5
2014-Sep-07 20:34N 35°20' E 139°44'1111.3
2014-Sep-07 19:33N 35°09' E 139°46'1211.8
2014-Sep-07 18:34N 34°58' E 139°41'1111.1
2014-Sep-07 17:32N 34°50' E 139°51'1616.7
2014-Sep-07 16:33N 34°55' E 140°09'1817.2
2014-Sep-07 15:32N 35°06' E 140°27'2117.7
2014-Sep-07 14:22N 35°18' E 140°48'1517.9
2014-Sep-07 13:33N 35°26' E 141°02'  
Track history (hours):
 
Tides and Currents Weather Stations Pressure Air Temp Water Temp Dewpoint Dewpoint Depression Visibility Wind Speed Wind Dir Waves Ship Positions

MOL Explorer

Last reported at 2014-Sep-13 17:33 UTC. Time now 2014-Sep-16 23:30 UTC.
Position N 35°32' E 141°22'.

Length 293 m; draft 11.7 m.

Type: Ship (hazmat cat A). MMSI: 372827000.

Date/timePositionNaut miles runAvg speedWind from/ knotsBaromVisibWave heightAir tempDewpointWater temp
2014-Sep-13 17:33N 35°32' E 141°22'2020.2
2014-Sep-13 16:33N 35°22' E 141°01'2019.7
2014-Sep-13 15:33N 35°10' E 140°42'1919.5
2014-Sep-13 14:33N 34°59' E 140°22'2019.6
2014-Sep-13 13:33N 34°49' E 140°01'1616.0
2014-Sep-13 12:33N 34°52' E 139°42'1615.9
2014-Sep-13 11:33N 35°08' E 139°45'1111.4
2014-Sep-13 10:33N 35°19' E 139°43'1212.3
2014-Sep-13 09:34N 35°30' E 139°51'8 8.1
2014-Sep-13 08:33N 35°36' E 139°46'0 0.0
2014-Sep-13 07:32N 35°36' E 139°46'0 0.0
2014-Sep-13 06:32N 35°36' E 139°46'0 0.0
2014-Sep-13 05:32N 35°36' E 139°46'0 0.0
2014-Sep-13 04:29N 35°36' E 139°46'0 0.0
2014-Sep-13 03:32N 35°36' E 139°46'0 0.0
2014-Sep-13 02:32N 35°36' E 139°46'0 0.0
2014-Sep-13 01:26N 35°36' E 139°46'0 0.0
2014-Sep-13 00:32N 35°36' E 139°46'0 0.0
2014-Sep-12 23:32N 35°36' E 139°46'0 0.4
2014-Sep-12 22:33N 35°36' E 139°46'9 8.5
2014-Sep-12 21:33N 35°29' E 139°52'1312.5
2014-Sep-12 20:34N 35°18' E 139°45'1111.2
2014-Sep-12 19:33N 35°06' E 139°45'1111.0
2014-Sep-12 18:33N 34°56' E 139°39'1612.4
2014-Sep-12 17:18N 34°41' E 139°34'50 9.8
2014-Sep-12 12:15N 34°55' E 138°36'8 6.9
2014-Sep-12 11:04N 35°02' E 138°31'0 0.0
2014-Sep-12 10:33N 35°02' E 138°31'0 0.0
2014-Sep-12 08:21N 35°02' E 138°31'0 0.0
2014-Sep-12 06:21N 35°02' E 138°31'0 0.0
2014-Sep-12 04:33N 35°02' E 138°31'0 0.0
2014-Sep-12 02:33N 35°02' E 138°31'0 0.0
2014-Sep-12 00:18N 35°02' E 138°31'30 9.6
2014-Sep-11 21:13N 34°34' E 138°21'174 3.9
2014-Sep-10 01:08N 33°56' E 134°56'712.4
2014-Sep-10 00:33N 34°03' E 134°56'1211.9
2014-Sep-09 23:33N 34°15' E 134°58'1313.1
2014-Sep-09 22:33N 34°27' E 135°05'1515.0
2014-Sep-09 21:33N 34°39' E 135°16'1 1.3
2014-Sep-09 20:30N 34°39' E 135°15'0 0.0
2014-Sep-09 19:33N 34°39' E 135°15'0 0.0
2014-Sep-09 18:30N 34°39' E 135°15'0 0.0
2014-Sep-09 17:30N 34°39' E 135°15'0 0.0
2014-Sep-09 16:30N 34°39' E 135°15'0 0.0
2014-Sep-09 15:30N 34°39' E 135°15'0 0.0
2014-Sep-09 14:27N 34°39' E 135°15'0 0.0
2014-Sep-09 13:30N 34°39' E 135°15'0 0.0
2014-Sep-09 12:30N 34°39' E 135°15'0 0.0
2014-Sep-09 11:30N 34°39' E 135°15'0 0.0
2014-Sep-09 10:30N 34°39' E 135°15'0 0.0
2014-Sep-09 09:30N 34°39' E 135°15'0 0.0
2014-Sep-09 08:18N 34°39' E 135°15'0 0.0
2014-Sep-09 07:30N 34°39' E 135°15'0 0.0
2014-Sep-09 06:33N 34°39' E 135°15'7 7.4
2014-Sep-09 05:33N 34°32' E 135°13'1716.9
2014-Sep-09 04:33N 34°19' E 135°00'1414.1
2014-Sep-09 03:33N 34°05' E 134°59'21515.2
2014-Sep-08 13:24N 34°47' E 139°15'1719.8
2014-Sep-08 12:33N 34°58' E 139°30'1818.4
2014-Sep-08 11:33N 35°11' E 139°46'1212.1
2014-Sep-08 10:33N 35°23' E 139°42'1212.1
2014-Sep-08 09:33N 35°34' E 139°49'3 3.3
2014-Sep-08 08:33N 35°36' E 139°46'0 0.0
2014-Sep-08 07:33N 35°36' E 139°46'0 0.0
2014-Sep-08 06:33N 35°36' E 139°46'0 0.0
2014-Sep-08 05:33N 35°36' E 139°46'0 0.0
2014-Sep-08 04:30N 35°36' E 139°46'0 0.0
2014-Sep-08 03:33N 35°36' E 139°46'0 0.0
2014-Sep-08 02:33N 35°36' E 139°46'0 0.0
2014-Sep-08 01:33N 35°36' E 139°46'0 0.0
2014-Sep-08 00:30N 35°36' E 139°46'0 0.0
2014-Sep-07 23:33N 35°36' E 139°46'0 0.1
2014-Sep-07 22:34N 35°36' E 139°46'8 8.4
2014-Sep-07 21:33N 35°30' E 139°52'1111.5
2014-Sep-07 20:34N 35°20' E 139°44'1111.3
2014-Sep-07 19:33N 35°09' E 139°46'1211.8
2014-Sep-07 18:34N 34°58' E 139°41'1111.1
2014-Sep-07 17:32N 34°50' E 139°51'1616.7
2014-Sep-07 16:33N 34°55' E 140°09'1817.2
2014-Sep-07 15:32N 35°06' E 140°27'2117.7
2014-Sep-07 14:22N 35°18' E 140°48'1517.9
2014-Sep-07 13:33N 35°26' E 141°02'  

Dump ship's entire track history